createdAt,value
2018-11-25T00:00:34.075Z,76.50
2018-11-25T00:01:08.580Z,76.50
2018-11-25T00:01:42.149Z,76.40
2018-11-25T00:02:16.452Z,76.30
2018-11-25T00:02:51.371Z,76.40
2018-11-25T00:03:27.004Z,76.30
2018-11-25T00:04:00.844Z,76.30
2018-11-25T00:04:35.269Z,76.30
2018-11-25T00:05:09.334Z,76.40
2018-11-25T00:05:44.691Z,76.20
2018-11-25T00:06:18.285Z,76.10
2018-11-25T00:06:51.999Z,76.30
2018-11-25T00:07:34.704Z,76.50
2018-11-25T00:08:01.453Z,76.40
2018-11-25T00:08:36.016Z,76.30
2018-11-25T00:09:11.130Z,76.00
2018-11-25T00:09:44.705Z,76.00
2018-11-25T00:10:18.464Z,76.00
2018-11-25T00:10:52.638Z,76.00
2018-11-25T00:11:26.243Z,76.10
2018-11-25T00:11:59.832Z,75.90
2018-11-25T00:12:33.371Z,75.60
2018-11-25T00:13:06.945Z,75.40
2018-11-25T00:13:42.015Z,75.40
2018-11-25T00:14:16.319Z,75.50
2018-11-25T00:14:51.493Z,75.60
2018-11-25T00:15:25.299Z,75.80
2018-11-25T00:15:59.816Z,76.10
2018-11-25T00:16:34.955Z,76.30
2018-11-25T00:17:08.625Z,76.50
2018-11-25T00:17:42.214Z,76.60
2018-11-25T00:18:15.887Z,76.80
2018-11-25T00:18:51.081Z,76.80
2018-11-25T00:19:25.448Z,77.50
2018-11-25T00:19:59.301Z,77.30
2018-11-25T00:20:33.462Z,76.70
2018-11-25T00:21:07.420Z,76.60
2018-11-25T00:21:42.989Z,76.40
2018-11-25T00:22:16.574Z,76.70
2018-11-25T00:22:50.179Z,76.60
2018-11-25T00:23:26.297Z,76.50
2018-11-25T00:24:00.531Z,76.50
2018-11-25T00:24:34.616Z,76.70
2018-11-25T00:25:10.532Z,76.50
2018-11-25T00:25:45.498Z,76.00
2018-11-25T00:26:19.854Z,75.60
2018-11-25T00:26:53.494Z,75.50
2018-11-25T00:27:28.222Z,75.80
2018-11-25T00:28:02.918Z,76.10
2018-11-25T00:28:36.517Z,76.30
2018-11-25T00:29:10.535Z,77.20
2018-11-25T00:29:45.554Z,76.40
2018-11-25T00:30:20.203Z,76.40
2018-11-25T00:30:53.750Z,76.50
2018-11-25T00:31:28.626Z,76.60
2018-11-25T00:32:02.157Z,76.70
2018-11-25T00:32:36.460Z,76.60
2018-11-25T00:33:11.692Z,76.60
2018-11-25T00:33:45.223Z,76.70
2018-11-25T00:34:19.841Z,76.60
2018-11-25T00:34:53.470Z,76.50
2018-11-25T00:35:27.131Z,76.50
2018-11-25T00:36:02.824Z,76.60
2018-11-25T00:36:36.542Z,76.70
2018-11-25T00:37:10.711Z,77.00
2018-11-25T00:37:48.223Z,77.80
2018-11-25T00:38:20.013Z,77.10
2018-11-25T00:38:54.798Z,77.10
2018-11-25T00:39:28.309Z,77.10
2018-11-25T00:40:03.523Z,76.70
2018-11-25T00:40:37.662Z,76.80
2018-11-25T00:41:11.432Z,76.60
2018-11-25T00:41:45.505Z,76.50
2018-11-25T00:42:19.084Z,77.00
2018-11-25T00:42:53.582Z,76.40
2018-11-25T00:43:28.161Z,76.30
2018-11-25T00:44:02.297Z,77.00
2018-11-25T00:44:35.824Z,76.40
2018-11-25T00:45:13.852Z,76.50
2018-11-25T00:45:47.412Z,76.70
2018-11-25T00:46:21.455Z,76.70
2018-11-25T00:46:55.040Z,76.80
2018-11-25T00:47:30.136Z,76.80
2018-11-25T00:48:03.666Z,76.90
2018-11-25T00:48:37.483Z,76.90
2018-11-25T00:49:11.711Z,76.90
2018-11-25T00:49:46.379Z,77.00
2018-11-25T00:50:19.997Z,77.00
2018-11-25T00:50:53.662Z,76.90
2018-11-25T00:51:27.426Z,76.70
2018-11-25T00:52:02.004Z,76.50
2018-11-25T00:52:36.272Z,76.50
2018-11-25T00:53:09.798Z,76.40
2018-11-25T00:53:43.312Z,76.40
2018-11-25T00:54:17.864Z,76.40
2018-11-25T00:54:53.165Z,76.30
2018-11-25T00:55:26.760Z,76.20
2018-11-25T00:56:01.378Z,76.20
2018-11-25T00:56:35.549Z,76.30
2018-11-25T00:57:10.269Z,76.10
2018-11-25T00:57:45.865Z,75.80
2018-11-25T00:58:19.474Z,75.70
2018-11-25T00:58:52.989Z,75.70
2018-11-25T00:59:26.516Z,75.80
2018-11-25T01:00:00.784Z,75.90
2018-11-25T01:00:36.967Z,76.10
2018-11-25T01:01:10.533Z,76.20
2018-11-25T01:01:45.534Z,76.00
2018-11-25T01:02:19.743Z,75.90
2018-11-25T01:02:53.337Z,75.60
2018-11-25T01:03:27.487Z,75.50
2018-11-25T01:04:02.284Z,75.80
2018-11-25T01:04:36.623Z,76.00
2018-11-25T01:05:10.769Z,76.00
2018-11-25T01:05:44.320Z,76.10
2018-11-25T01:06:20.028Z,76.20
2018-11-25T01:06:53.961Z,76.20
2018-11-25T01:07:27.801Z,76.20
2018-11-25T01:08:01.479Z,76.10
2018-11-25T01:08:35.003Z,76.00
2018-11-25T01:09:10.378Z,76.10
2018-11-25T01:09:44.501Z,76.30
2018-11-25T01:10:19.158Z,76.40
2018-11-25T01:10:53.240Z,76.40
2018-11-25T01:11:26.845Z,76.30
2018-11-25T01:12:00.985Z,76.20
2018-11-25T01:12:35.794Z,76.10
2018-11-25T01:13:09.666Z,76.10
2018-11-25T01:13:43.215Z,75.90
2018-11-25T01:14:16.779Z,75.70
2018-11-25T01:14:52.465Z,75.50
2018-11-25T01:15:26.003Z,75.60
2018-11-25T01:16:01.812Z,75.90
2018-11-25T01:16:36.605Z,75.80
2018-11-25T01:17:11.405Z,75.70
2018-11-25T01:17:45.430Z,75.70
2018-11-25T01:18:19.032Z,75.80
2018-11-25T01:18:53.066Z,75.80
2018-11-25T01:19:26.621Z,75.90
2018-11-25T01:20:00.099Z,75.70
2018-11-25T01:20:33.605Z,76.20
2018-11-25T01:21:07.760Z,75.50
2018-11-25T01:21:41.285Z,75.50
2018-11-25T01:22:17.091Z,75.50
2018-11-25T01:22:50.705Z,75.60
2018-11-25T01:23:24.292Z,75.70
2018-11-25T01:23:57.961Z,75.60
2018-11-25T01:24:33.816Z,75.50
2018-11-25T01:25:10.524Z,75.60
2018-11-25T01:25:44.698Z,75.80
2018-11-25T01:26:18.499Z,75.80
2018-11-25T01:26:52.866Z,75.80
2018-11-25T01:27:27.196Z,75.70
2018-11-25T01:28:00.854Z,75.80
2018-11-25T01:28:35.794Z,75.90
2018-11-25T01:29:09.389Z,75.90
2018-11-25T01:29:43.029Z,75.70
2018-11-25T01:30:17.379Z,75.20
2018-11-25T01:30:51.553Z,75.00
2018-11-25T01:31:25.103Z,74.80
2018-11-25T01:31:58.860Z,74.80
2018-11-25T01:32:32.444Z,75.00
2018-11-25T01:33:06.265Z,75.30
2018-11-25T01:33:39.756Z,75.50
2018-11-25T01:34:13.710Z,75.50
2018-11-25T01:34:47.582Z,75.60
2018-11-25T01:35:22.310Z,75.80
2018-11-25T01:35:55.988Z,75.80
2018-11-25T01:36:29.621Z,75.90
2018-11-25T01:37:05.142Z,75.90
2018-11-25T01:37:39.855Z,76.00
2018-11-25T01:38:13.730Z,76.00
2018-11-25T01:38:54.571Z,75.90
2018-11-25T01:39:28.564Z,75.90
2018-11-25T01:40:03.027Z,75.90
2018-11-25T01:40:36.643Z,75.90
2018-11-25T01:41:11.019Z,76.00
2018-11-25T01:41:45.196Z,75.90
2018-11-25T01:42:18.909Z,75.80
2018-11-25T01:42:52.569Z,75.80
2018-11-25T01:43:26.148Z,75.90
2018-11-25T01:44:00.499Z,75.90
2018-11-25T01:44:34.985Z,76.90
2018-11-25T01:45:11.383Z,76.50
2018-11-25T01:45:44.888Z,76.60
2018-11-25T01:46:19.432Z,77.50
2018-11-25T01:46:53.242Z,76.70
2018-11-25T01:47:27.775Z,76.60
2018-11-25T01:48:03.709Z,76.70
2018-11-25T01:48:37.258Z,76.80
2018-11-25T01:49:10.856Z,76.90
2018-11-25T01:49:45.584Z,76.80
2018-11-25T01:50:19.173Z,77.00
2018-11-25T01:50:53.480Z,76.90
2018-11-25T01:51:27.081Z,76.80
2018-11-25T01:52:00.626Z,77.50
2018-11-25T01:52:35.347Z,76.80
2018-11-25T01:53:08.969Z,76.80
2018-11-25T01:53:42.990Z,76.50
2018-11-25T01:54:16.556Z,76.50
2018-11-25T01:54:51.274Z,76.30
2018-11-25T01:55:24.854Z,76.30
2018-11-25T01:55:59.001Z,76.30
2018-11-25T01:56:32.587Z,76.40
2018-11-25T01:57:07.360Z,76.40
2018-11-25T01:57:40.878Z,76.30
2018-11-25T01:58:14.806Z,76.50
2018-11-25T01:58:49.026Z,76.50
2018-11-25T01:59:23.634Z,76.80
2018-11-25T01:59:57.220Z,76.90
2018-11-25T02:00:32.122Z,76.80
2018-11-25T02:01:06.380Z,76.60
2018-11-25T02:01:40.368Z,76.50
2018-11-25T02:02:14.825Z,76.50
2018-11-25T02:02:48.440Z,76.50
2018-11-25T02:03:22.003Z,76.30
2018-11-25T02:03:56.453Z,76.40
2018-11-25T02:04:30.726Z,76.30
2018-11-25T02:05:06.398Z,76.30
2018-11-25T02:05:40.260Z,76.30
2018-11-25T02:06:13.831Z,76.50
2018-11-25T02:06:48.192Z,76.70
2018-11-25T02:07:21.778Z,77.50
2018-11-25T02:07:55.329Z,76.80
2018-11-25T02:08:29.600Z,76.90
2018-11-25T02:09:04.038Z,76.90
2018-11-25T02:09:37.648Z,76.70
2018-11-25T02:10:14.381Z,76.60
2018-11-25T02:10:49.102Z,76.70
2018-11-25T02:11:23.531Z,76.50
2018-11-25T02:11:58.305Z,76.50
2018-11-25T02:12:32.067Z,76.70
2018-11-25T02:13:06.003Z,76.50
2018-11-25T02:13:39.981Z,76.60
2018-11-25T02:14:15.461Z,76.40
2018-11-25T02:14:49.575Z,76.40
2018-11-25T02:15:23.709Z,76.40
2018-11-25T02:15:57.298Z,76.30
2018-11-25T02:16:31.584Z,76.30
2018-11-25T02:17:07.161Z,76.50
2018-11-25T02:17:40.769Z,76.50
2018-11-25T02:18:14.432Z,76.30
2018-11-25T02:18:49.193Z,76.20
2018-11-25T02:19:23.003Z,76.20
2018-11-25T02:19:56.579Z,76.20
2018-11-25T02:20:30.926Z,76.20
2018-11-25T02:21:05.607Z,76.30
2018-11-25T02:21:40.767Z,76.30
2018-11-25T02:22:15.289Z,76.10
2018-11-25T02:22:49.909Z,76.10
2018-11-25T02:23:24.458Z,76.20
2018-11-25T02:23:57.932Z,77.00
2018-11-25T02:24:31.530Z,76.20
2018-11-25T02:25:06.497Z,76.40
2018-11-25T02:25:40.030Z,76.40
2018-11-25T02:26:14.036Z,76.30
2018-11-25T02:26:48.506Z,76.10
2018-11-25T02:27:22.072Z,75.90
2018-11-25T02:27:56.883Z,76.40
2018-11-25T02:28:30.921Z,75.40
2018-11-25T02:29:04.618Z,75.50
2018-11-25T02:29:38.810Z,75.60
2018-11-25T02:30:13.942Z,75.90
2018-11-25T02:30:48.922Z,76.10
2018-11-25T02:31:23.613Z,76.10
2018-11-25T02:31:58.663Z,75.90
2018-11-25T02:32:34.408Z,75.90
2018-11-25T02:33:08.526Z,75.90
2018-11-25T02:33:42.125Z,75.90
2018-11-25T02:34:15.856Z,75.60
2018-11-25T02:34:50.421Z,75.30
2018-11-25T02:35:24.426Z,75.10
2018-11-25T02:35:58.457Z,75.50
2018-11-25T02:36:34.311Z,75.80
2018-11-25T02:37:08.197Z,76.00
2018-11-25T02:37:42.960Z,76.20
2018-11-25T02:38:16.507Z,76.40
2018-11-25T02:38:51.007Z,76.60
2018-11-25T02:39:24.736Z,76.60
2018-11-25T02:39:58.272Z,76.30
2018-11-25T02:40:33.582Z,76.00
2018-11-25T02:41:07.208Z,75.80
2018-11-25T02:41:42.689Z,75.70
2018-11-25T02:42:16.756Z,75.90
2018-11-25T02:42:50.428Z,76.00
2018-11-25T02:43:24.458Z,75.90
2018-11-25T02:43:58.113Z,75.80
2018-11-25T02:44:31.771Z,75.80
2018-11-25T02:45:08.264Z,76.00
2018-11-25T02:45:41.877Z,75.80
2018-11-25T02:46:15.440Z,75.80
2018-11-25T02:46:50.272Z,75.80
2018-11-25T02:47:23.902Z,75.90
2018-11-25T02:47:59.068Z,75.70
2018-11-25T02:48:33.650Z,75.70
2018-11-25T02:49:07.459Z,75.70
2018-11-25T02:49:41.719Z,75.70
2018-11-25T02:50:33.045Z,75.90
2018-11-25T02:51:06.936Z,76.10
2018-11-25T02:51:40.995Z,76.20
2018-11-25T02:52:14.497Z,76.30
2018-11-25T02:52:48.759Z,76.30
2018-11-25T02:53:22.290Z,77.00
2018-11-25T02:53:56.614Z,76.20
2018-11-25T02:54:30.138Z,76.20
2018-11-25T02:55:04.561Z,76.20
2018-11-25T02:55:40.676Z,76.10
2018-11-25T02:56:14.705Z,76.10
2018-11-25T02:56:48.806Z,76.20
2018-11-25T02:57:23.953Z,76.10
2018-11-25T02:57:58.127Z,75.90
2018-11-25T02:58:32.224Z,75.70
2018-11-25T02:59:06.818Z,75.80
2018-11-25T02:59:41.830Z,76.00
2018-11-25T03:00:15.330Z,76.20
2018-11-25T03:00:49.028Z,76.10
2018-11-25T03:01:22.563Z,75.90
2018-11-25T03:01:56.081Z,75.70
2018-11-25T03:02:31.611Z,75.70
2018-11-25T03:03:06.773Z,75.80
2018-11-25T03:03:41.354Z,75.70
2018-11-25T03:04:15.409Z,75.50
2018-11-25T03:04:49.729Z,75.30
2018-11-25T03:05:23.287Z,75.30
2018-11-25T03:05:56.893Z,75.40
2018-11-25T03:06:30.386Z,75.60
2018-11-25T03:07:04.319Z,76.00
2018-11-25T03:07:40.468Z,76.10
2018-11-25T03:08:13.960Z,76.10
2018-11-25T03:08:47.529Z,76.10
2018-11-25T03:09:22.035Z,76.10
2018-11-25T03:09:56.291Z,76.20
2018-11-25T03:10:29.886Z,76.40
2018-11-25T03:11:04.531Z,76.40
2018-11-25T03:11:38.783Z,76.50
2018-11-25T03:12:12.352Z,76.50
2018-11-25T03:12:45.926Z,76.60
2018-11-25T03:13:19.526Z,76.40
2018-11-25T03:13:53.412Z,76.40
2018-11-25T03:14:29.402Z,76.30
2018-11-25T03:15:04.474Z,76.20
2018-11-25T03:15:38.196Z,75.90
2018-11-25T03:16:11.771Z,75.70
2018-11-25T03:16:46.270Z,75.80
2018-11-25T03:17:20.323Z,75.70
2018-11-25T03:17:53.853Z,75.70
2018-11-25T03:18:29.002Z,75.80
2018-11-25T03:19:02.548Z,75.80
2018-11-25T03:19:38.234Z,75.60
2018-11-25T03:20:12.891Z,75.50
2018-11-25T03:20:46.433Z,76.00
2018-11-25T03:21:19.932Z,75.60
2018-11-25T03:21:53.526Z,75.70
2018-11-25T03:22:27.134Z,75.80
2018-11-25T03:23:00.724Z,75.70
2018-11-25T03:23:35.481Z,75.80
2018-11-25T03:24:09.404Z,76.00
2018-11-25T03:24:43.004Z,76.20
2018-11-25T03:25:19.477Z,76.70
2018-11-25T03:25:53.020Z,76.00
2018-11-25T03:26:26.534Z,75.90
2018-11-25T03:27:00.114Z,75.70
2018-11-25T03:27:34.543Z,76.10
2018-11-25T03:28:09.290Z,76.20
2018-11-25T03:28:43.061Z,76.20
2018-11-25T03:29:18.116Z,76.10
2018-11-25T03:29:52.272Z,76.20
2018-11-25T03:30:26.552Z,76.30
2018-11-25T03:31:00.042Z,76.50
2018-11-25T03:31:35.636Z,76.40
2018-11-25T03:32:09.187Z,76.60
2018-11-25T03:32:43.324Z,76.50
2018-11-25T03:33:18.035Z,76.60
2018-11-25T03:33:51.826Z,76.50
2018-11-25T03:34:25.394Z,76.30
2018-11-25T03:34:59.553Z,76.00
2018-11-25T03:35:33.218Z,75.90
2018-11-25T03:36:06.818Z,76.00
2018-11-25T03:36:42.245Z,76.20
2018-11-25T03:37:15.805Z,76.80
2018-11-25T03:37:49.946Z,76.10
2018-11-25T03:38:23.436Z,75.90
2018-11-25T03:38:57.563Z,76.00
2018-11-25T03:39:31.620Z,76.20
2018-11-25T03:40:08.527Z,76.50
2018-11-25T03:40:43.383Z,76.70
2018-11-25T03:41:16.966Z,76.60
2018-11-25T03:41:51.129Z,76.80
2018-11-25T03:42:24.900Z,76.70
2018-11-25T03:42:58.465Z,76.60
2018-11-25T03:43:32.860Z,76.30
2018-11-25T03:44:06.455Z,76.40
2018-11-25T03:44:40.092Z,76.40
2018-11-25T03:45:16.664Z,76.50
2018-11-25T03:45:50.671Z,76.40
2018-11-25T03:46:24.155Z,76.40
2018-11-25T03:46:57.695Z,76.50
2018-11-25T03:47:32.364Z,76.60
2018-11-25T03:48:06.870Z,76.60
2018-11-25T03:48:40.511Z,76.70
2018-11-25T03:49:14.417Z,76.80
2018-11-25T03:49:47.901Z,76.80
2018-11-25T03:50:21.965Z,76.80
2018-11-25T03:50:55.464Z,76.80
2018-11-25T03:51:29.606Z,76.60
2018-11-25T03:52:03.706Z,76.60
2018-11-25T03:52:37.254Z,76.50
2018-11-25T03:53:10.837Z,76.60
2018-11-25T03:53:44.743Z,76.60
2018-11-25T03:54:18.893Z,76.50
2018-11-25T03:54:52.431Z,76.30
2018-11-25T03:55:25.905Z,76.20
2018-11-25T03:55:59.461Z,76.40
2018-11-25T03:56:32.984Z,76.00
2018-11-25T03:57:06.570Z,76.50
2018-11-25T03:57:41.359Z,76.70
2018-11-25T03:58:16.024Z,76.70
2018-11-25T03:58:49.616Z,76.60
2018-11-25T03:59:24.272Z,76.90
2018-11-25T03:59:58.477Z,77.00
2018-11-25T04:00:33.754Z,76.90
2018-11-25T04:01:09.424Z,76.50
2018-11-25T04:01:43.609Z,76.40
2018-11-25T04:02:19.413Z,76.50
2018-11-25T04:02:54.457Z,76.50
2018-11-25T04:03:28.815Z,76.30
2018-11-25T04:05:08.237Z,76.20
2018-11-25T04:05:41.776Z,76.20
2018-11-25T04:06:15.319Z,76.30
2018-11-25T04:06:48.870Z,76.40
2018-11-25T04:07:23.712Z,76.50
2018-11-25T04:07:57.302Z,76.80
2018-11-25T04:08:30.825Z,76.90
2018-11-25T04:09:06.031Z,76.90
2018-11-25T04:09:39.722Z,77.10
2018-11-25T04:10:18.152Z,77.30
2018-11-25T04:10:51.635Z,77.40
2018-11-25T04:11:25.820Z,77.30
2018-11-25T04:11:59.518Z,77.10
2018-11-25T04:12:34.028Z,77.10
2018-11-25T04:13:07.597Z,77.10
2018-11-25T04:13:41.234Z,77.10
2018-11-25T04:14:16.019Z,76.50
2018-11-25T04:14:49.807Z,76.90
2018-11-25T04:15:25.104Z,77.00
2018-11-25T04:15:58.673Z,76.90
2018-11-25T04:16:32.790Z,76.70
2018-11-25T04:17:07.283Z,76.70
2018-11-25T04:17:41.838Z,76.80
2018-11-25T04:18:15.446Z,77.00
2018-11-25T04:18:49.484Z,77.10
2018-11-25T04:19:23.027Z,77.40
2018-11-25T04:19:58.153Z,77.50
2018-11-25T04:20:34.935Z,77.50
2018-11-25T04:21:08.517Z,77.50
2018-11-25T04:21:42.808Z,77.10
2018-11-25T04:22:16.756Z,76.70
2018-11-25T04:22:50.704Z,76.40
2018-11-25T04:23:24.457Z,76.50
2018-11-25T04:23:58.727Z,76.70
2018-11-25T04:24:32.257Z,76.90
2018-11-25T04:25:08.226Z,76.80
2018-11-25T04:25:41.910Z,76.80
2018-11-25T04:26:15.802Z,76.80
2018-11-25T04:26:49.317Z,76.90
2018-11-25T04:27:22.870Z,76.80
2018-11-25T04:27:57.091Z,77.00
2018-11-25T04:28:31.076Z,77.20
2018-11-25T04:29:05.946Z,77.10
2018-11-25T04:29:39.454Z,77.20
2018-11-25T04:30:16.076Z,77.50
2018-11-25T04:30:50.169Z,77.80
2018-11-25T04:31:23.963Z,77.80
2018-11-25T04:31:58.031Z,77.60
2018-11-25T04:32:31.621Z,77.50
2018-11-25T04:33:06.212Z,77.10
2018-11-25T04:33:39.791Z,77.00
2018-11-25T04:34:14.434Z,77.00
2018-11-25T04:34:48.060Z,77.20
2018-11-25T04:35:21.692Z,77.20
2018-11-25T04:35:55.197Z,77.20
2018-11-25T04:36:28.749Z,77.10
2018-11-25T04:37:02.813Z,77.00
2018-11-25T04:37:37.220Z,77.70
2018-11-25T04:38:11.304Z,76.90
2018-11-25T04:38:44.870Z,76.90
2018-11-25T04:39:19.349Z,77.20
2018-11-25T04:39:52.949Z,77.40
2018-11-25T04:40:26.484Z,78.20
2018-11-25T04:40:59.999Z,77.80
2018-11-25T04:41:34.329Z,77.80
2018-11-25T04:42:07.872Z,77.80
2018-11-25T04:42:41.438Z,77.60
2018-11-25T04:43:15.687Z,77.60
2018-11-25T04:43:49.183Z,77.40
2018-11-25T04:44:23.927Z,77.50
2018-11-25T04:44:57.494Z,77.50
2018-11-25T04:45:31.066Z,77.50
2018-11-25T04:46:05.658Z,77.30
2018-11-25T04:46:39.256Z,77.30
2018-11-25T04:47:13.300Z,77.30
2018-11-25T04:47:47.403Z,77.50
2018-11-25T04:48:20.987Z,77.50
2018-11-25T04:48:55.741Z,77.70
2018-11-25T04:49:29.258Z,77.80
2018-11-25T04:50:02.918Z,78.00
2018-11-25T04:50:37.052Z,78.10
2018-11-25T04:51:11.888Z,78.30
2018-11-25T04:51:45.471Z,78.30
2018-11-25T04:52:20.229Z,79.10
2018-11-25T04:52:54.455Z,78.60
2018-11-25T04:53:29.166Z,78.60
2018-11-25T04:54:02.775Z,78.80
2018-11-25T04:54:36.447Z,78.50
2018-11-25T04:55:10.269Z,78.10
2018-11-25T04:55:43.829Z,78.00
2018-11-25T04:56:18.293Z,78.10
2018-11-25T04:56:54.368Z,78.30
2018-11-25T04:57:27.915Z,78.40
2018-11-25T04:58:02.290Z,78.20
2018-11-25T04:58:36.017Z,77.90
2018-11-25T04:59:10.661Z,77.90
2018-11-25T04:59:46.012Z,78.10
2018-11-25T05:00:20.479Z,77.90
2018-11-25T05:00:54.727Z,77.80
2018-11-25T05:01:28.469Z,77.70
2018-11-25T05:02:02.745Z,78.60
2018-11-25T05:02:37.387Z,78.00
2018-11-25T05:03:12.143Z,77.90
2018-11-25T05:03:45.734Z,77.80
2018-11-25T05:04:20.130Z,77.80
2018-11-25T05:04:53.740Z,77.70
2018-11-25T05:05:29.320Z,77.70
2018-11-25T05:06:04.085Z,77.70
2018-11-25T05:06:37.632Z,77.90
2018-11-25T05:07:12.031Z,78.80
2018-11-25T05:07:46.584Z,78.70
2018-11-25T05:08:20.145Z,78.00
2018-11-25T05:08:53.706Z,78.00
2018-11-25T05:09:27.351Z,78.00
2018-11-25T05:10:00.952Z,78.10
2018-11-25T05:10:35.012Z,78.00
2018-11-25T05:11:08.811Z,78.10
2018-11-25T05:11:42.540Z,78.10
2018-11-25T05:12:16.024Z,78.10
2018-11-25T05:12:49.610Z,78.00
2018-11-25T05:13:23.411Z,78.00
2018-11-25T05:13:57.536Z,78.10
2018-11-25T05:14:31.200Z,78.30
2018-11-25T05:15:04.968Z,78.30
2018-11-25T05:15:38.484Z,78.10
2018-11-25T05:16:12.076Z,77.90
2018-11-25T05:16:47.107Z,77.70
2018-11-25T05:17:21.619Z,77.70
2018-11-25T05:17:55.550Z,77.60
2018-11-25T05:18:29.693Z,77.70
2018-11-25T05:19:04.606Z,77.70
2018-11-25T05:19:38.156Z,77.90
2018-11-25T05:20:12.625Z,78.00
2018-11-25T05:20:46.143Z,78.80
2018-11-25T05:21:19.705Z,78.10
2018-11-25T05:21:53.216Z,77.90
2018-11-25T05:22:28.258Z,77.50
2018-11-25T05:23:02.417Z,77.50
2018-11-25T05:23:36.288Z,77.70
2018-11-25T05:24:10.212Z,77.70
2018-11-25T05:24:43.853Z,77.50
2018-11-25T05:25:18.327Z,77.80
2018-11-25T05:25:51.896Z,77.90
2018-11-25T05:26:25.365Z,78.00
2018-11-25T05:26:59.200Z,78.10
2018-11-25T05:27:32.760Z,78.20
2018-11-25T05:28:07.333Z,78.10
2018-11-25T05:28:41.560Z,78.10
2018-11-25T05:29:15.646Z,78.00
2018-11-25T05:29:49.185Z,78.10
2018-11-25T05:30:22.700Z,78.00
2018-11-25T05:30:56.184Z,78.00
2018-11-25T05:31:29.709Z,77.90
2018-11-25T05:32:03.573Z,77.90
2018-11-25T05:32:38.360Z,77.70
2018-11-25T05:33:18.337Z,77.50
2018-11-25T05:33:51.950Z,77.40
2018-11-25T05:34:25.569Z,77.60
2018-11-25T05:34:59.083Z,77.70
2018-11-25T05:35:34.123Z,77.50
2018-11-25T05:36:07.927Z,77.70
2018-11-25T05:36:41.514Z,77.90
2018-11-25T05:37:15.482Z,77.90
2018-11-25T05:37:50.106Z,77.90
2018-11-25T05:38:23.624Z,78.00
2018-11-25T05:38:57.200Z,77.90
2018-11-25T05:39:31.589Z,77.80
2018-11-25T05:40:06.020Z,77.90
2018-11-25T05:40:39.480Z,78.10
2018-11-25T05:41:13.020Z,78.10
2018-11-25T05:41:46.815Z,78.10
2018-11-25T05:42:21.207Z,78.10
2018-11-25T05:42:54.794Z,78.00
2018-11-25T05:43:30.395Z,77.60
2018-11-25T05:44:04.924Z,77.50
2018-11-25T05:44:39.036Z,77.50
2018-11-25T05:45:15.869Z,77.50
2018-11-25T05:45:49.371Z,77.70
2018-11-25T05:46:23.414Z,77.80
2018-11-25T05:46:57.525Z,77.90
2018-11-25T05:47:32.351Z,78.00
2018-11-25T05:48:06.412Z,78.20
2018-11-25T05:48:39.896Z,78.20
2018-11-25T05:49:14.615Z,78.00
2018-11-25T05:49:48.198Z,78.00
2018-11-25T05:50:21.868Z,78.00
2018-11-25T05:50:55.451Z,78.00
2018-11-25T05:51:29.012Z,77.90
2018-11-25T05:52:02.621Z,77.70
2018-11-25T05:52:37.102Z,77.70
2018-11-25T05:53:10.741Z,77.80
2018-11-25T05:53:44.412Z,77.90
2018-11-25T05:54:17.920Z,78.00
2018-11-25T05:54:53.276Z,77.90
2018-11-25T05:55:26.793Z,77.60
2018-11-25T05:56:01.635Z,77.70
2018-11-25T05:56:35.516Z,77.70
2018-11-25T05:57:09.513Z,77.70
2018-11-25T05:57:43.554Z,77.70
2018-11-25T05:58:17.124Z,77.70
2018-11-25T05:58:50.747Z,77.50
2018-11-25T05:59:24.214Z,77.40
2018-11-25T05:59:57.767Z,77.70
2018-11-25T06:00:33.042Z,77.50
2018-11-25T06:01:07.300Z,77.50
2018-11-25T06:01:41.009Z,77.50
2018-11-25T06:02:16.427Z,77.40
2018-11-25T06:02:50.043Z,77.50
2018-11-25T06:03:23.630Z,77.50
2018-11-25T06:03:57.160Z,77.50
2018-11-25T06:04:31.194Z,77.40
2018-11-25T06:05:05.817Z,77.50
2018-11-25T06:05:39.368Z,77.40
2018-11-25T06:06:14.111Z,77.20
2018-11-25T06:06:47.702Z,77.10
2018-11-25T06:07:21.722Z,77.00
2018-11-25T06:07:55.374Z,77.20
2018-11-25T06:08:28.937Z,77.20
2018-11-25T06:09:02.562Z,77.20
2018-11-25T06:09:36.391Z,77.30
2018-11-25T06:10:12.125Z,77.30
2018-11-25T06:10:46.076Z,77.50
2018-11-25T06:11:19.544Z,77.50
2018-11-25T06:11:53.685Z,77.30
2018-11-25T06:12:27.223Z,77.10
2018-11-25T06:13:00.796Z,77.20
2018-11-25T06:13:34.535Z,77.20
2018-11-25T06:14:08.074Z,77.30
2018-11-25T06:14:41.691Z,77.30
2018-11-25T06:15:16.127Z,77.40
2018-11-25T06:15:49.658Z,77.30
2018-11-25T06:16:23.195Z,77.40
2018-11-25T06:16:56.762Z,77.40
2018-11-25T06:17:30.321Z,77.10
2018-11-25T06:18:04.354Z,77.10
2018-11-25T06:18:38.516Z,77.00
2018-11-25T06:19:12.455Z,77.20
2018-11-25T06:19:45.979Z,77.40
2018-11-25T06:20:19.732Z,77.30
2018-11-25T06:20:53.953Z,77.40
2018-11-25T06:21:27.523Z,77.50
2018-11-25T06:22:01.962Z,77.50
2018-11-25T06:22:35.682Z,77.30
2018-11-25T06:23:09.698Z,77.20
2018-11-25T06:23:43.257Z,77.20
2018-11-25T06:24:16.775Z,77.30
2018-11-25T06:24:50.346Z,77.50
2018-11-25T06:25:23.889Z,77.50
2018-11-25T06:25:57.747Z,77.40
2018-11-25T06:26:31.259Z,77.50
2018-11-25T06:27:06.510Z,77.60
2018-11-25T06:27:40.044Z,77.60
2018-11-25T06:28:13.858Z,77.80
2018-11-25T06:28:47.387Z,77.80
2018-11-25T06:29:21.019Z,77.70
2018-11-25T06:29:55.344Z,77.70
2018-11-25T06:30:28.920Z,77.50
2018-11-25T06:31:03.882Z,77.40
2018-11-25T06:31:37.678Z,77.20
2018-11-25T06:32:17.775Z,77.20
2018-11-25T06:32:51.394Z,77.20
2018-11-25T06:33:24.931Z,77.20
2018-11-25T06:33:59.038Z,77.20
2018-11-25T06:34:32.898Z,77.20
2018-11-25T06:35:08.043Z,77.20
2018-11-25T06:35:42.226Z,77.10
2018-11-25T06:36:15.794Z,76.90
2018-11-25T06:36:49.372Z,76.80
2018-11-25T06:37:23.573Z,76.80
2018-11-25T06:37:57.675Z,77.60
2018-11-25T06:38:31.189Z,77.00
2018-11-25T06:39:08.154Z,77.00
2018-11-25T06:39:41.665Z,76.90
2018-11-25T06:40:18.789Z,77.00
2018-11-25T06:40:53.343Z,77.00
2018-11-25T06:41:33.849Z,77.10
2018-11-25T06:42:01.133Z,77.20
2018-11-25T06:42:35.151Z,77.10
2018-11-25T06:43:09.359Z,76.80
2018-11-25T06:43:42.847Z,76.80
2018-11-25T06:44:16.511Z,76.90
2018-11-25T06:44:50.160Z,76.90
2018-11-25T06:45:27.958Z,76.90
2018-11-25T06:46:01.634Z,77.00
2018-11-25T06:46:35.713Z,77.00
2018-11-25T06:47:09.360Z,77.50
2018-11-25T06:47:43.010Z,76.90
2018-11-25T06:48:16.509Z,76.90
2018-11-25T06:48:54.773Z,76.90
2018-11-25T06:49:24.269Z,76.80
2018-11-25T06:49:57.820Z,76.80
2018-11-25T06:50:33.154Z,76.80
2018-11-25T06:51:07.056Z,77.00
2018-11-25T06:51:40.559Z,77.30
2018-11-25T06:52:14.128Z,77.50
2018-11-25T06:52:48.344Z,77.50
2018-11-25T06:53:22.475Z,77.50
2018-11-25T06:53:56.543Z,77.20
2018-11-25T06:54:30.131Z,77.00
2018-11-25T06:55:05.011Z,77.10
2018-11-25T06:55:39.673Z,77.10
2018-11-25T06:56:13.313Z,76.90
2018-11-25T06:56:46.871Z,76.60
2018-11-25T06:57:20.366Z,76.40
2018-11-25T06:57:53.918Z,76.40
2018-11-25T06:58:28.043Z,76.50
2018-11-25T06:59:02.138Z,76.60
2018-11-25T06:59:36.314Z,76.50
2018-11-25T07:00:13.956Z,76.50
2018-11-25T07:00:47.473Z,76.80
2018-11-25T07:01:21.359Z,76.60
2018-11-25T07:01:55.434Z,76.50
2018-11-25T07:02:28.986Z,76.40
2018-11-25T07:03:02.930Z,76.40
2018-11-25T07:03:37.093Z,76.40
2018-11-25T07:04:10.614Z,76.30
2018-11-25T07:04:44.636Z,76.20
2018-11-25T07:05:18.220Z,76.20
2018-11-25T07:05:52.022Z,76.30
2018-11-25T07:06:25.558Z,76.50
2018-11-25T07:07:01.040Z,76.60
2018-11-25T07:07:34.661Z,76.70
2018-11-25T07:08:08.379Z,76.60
2018-11-25T07:08:41.940Z,76.60
2018-11-25T07:09:16.000Z,76.40
2018-11-25T07:09:49.992Z,76.20
2018-11-25T07:10:25.053Z,76.30
2018-11-25T07:10:59.556Z,76.20
2018-11-25T07:11:35.362Z,76.10
2018-11-25T07:12:08.861Z,76.20
2018-11-25T07:12:43.045Z,76.10
2018-11-25T07:13:18.680Z,76.00
2018-11-25T07:13:53.092Z,75.70
2018-11-25T07:14:26.642Z,75.50
2018-11-25T07:15:00.966Z,75.40
2018-11-25T07:15:36.528Z,75.40
2018-11-25T07:16:10.044Z,75.40
2018-11-25T07:16:43.667Z,75.40
2018-11-25T07:17:17.969Z,75.40
2018-11-25T07:17:52.032Z,75.40
2018-11-25T07:18:25.648Z,75.10
2018-11-25T07:18:59.218Z,74.60
2018-11-25T07:19:33.080Z,74.50
2018-11-25T07:20:08.857Z,74.40
2018-11-25T07:20:42.646Z,74.30
2018-11-25T07:21:16.411Z,74.10
2018-11-25T07:21:50.005Z,74.10